NASA966 KEFD-KEFD

Flight info

Callsign NASA966
Flight time 0h 51m
Altitude 3100
Route KBPT WAPPL
Aircraft T38/L-V/N

Departure

Time 2026-04-25 17:09
Airport Ellington Airport (KEFD)

Arrival

Time 2026-04-25 18:01
Airport Ellington Airport (KEFD)
Time Latitude Longitude Altitude Speed Heading
2026-04-25 16:32 29.59723 -95.16704 38 ft 0 kts
2026-04-25 17:04 29.59741 -95.16702 38 ft 7 kts 30°
2026-04-25 17:05 29.59748 -95.16638 38 ft 11 kts 80°
2026-04-25 17:05 29.59910 -95.16629 38 ft 18 kts 358°
2026-04-25 17:05 29.60056 -95.16632 37 ft 24 kts 359°
2026-04-25 17:06 29.60230 -95.16637 37 ft 27 kts 360°
2026-04-25 17:06 29.60426 -95.16640 37 ft 30 kts 355°
2026-04-25 17:06 29.60640 -95.16648 37 ft 32 kts
2026-04-25 17:06 29.60874 -95.16651 37 ft 35 kts 359°
2026-04-25 17:07 29.61127 -95.16652 37 ft 37 kts
2026-04-25 17:07 29.61397 -95.16660 37 ft 40 kts 359°
2026-04-25 17:07 29.61623 -95.16663 37 ft 18 kts 355°
2026-04-25 17:07 29.61709 -95.16619 37 ft 15 kts 41°
2026-04-25 17:08 29.61761 -95.16552 37 ft 0 kts 48°
2026-04-25 17:08 29.61792 -95.16512 36 ft 18 kts 57°
2026-04-25 17:09 29.61684 -95.16436 36 ft 43 kts 179°
2026-04-25 17:09 29.61026 -95.16423 38 ft 141 kts 178°
2026-04-25 17:09 29.59810 -95.16398 166 ft 193 kts 179°
2026-04-25 17:09 29.58405 -95.16429 1022 ft 222 kts 182°
2026-04-25 17:10 29.56633 -95.16465 1335 ft 284 kts 168°
2026-04-25 17:10 29.55230 -95.14969 1276 ft 296 kts 102°
2026-04-25 17:10 29.55438 -95.12739 1143 ft 278 kts 78°
2026-04-25 17:10 29.55762 -95.10567 1136 ft 272 kts 93°
2026-04-25 17:11 29.55587 -95.08403 1072 ft 274 kts 100°
2026-04-25 17:11 29.55394 -95.06229 1197 ft 278 kts 97°
2026-04-25 17:11 29.55156 -95.03970 1199 ft 297 kts 101°
2026-04-25 17:11 29.54772 -95.01599 1308 ft 305 kts 103°
2026-04-25 17:12 29.54261 -94.99219 1457 ft 306 kts 109°
2026-04-25 17:12 29.53614 -94.96886 1640 ft 310 kts 109°
2026-04-25 17:12 29.52966 -94.94490 1612 ft 317 kts 108°
2026-04-25 17:12 29.52531 -94.92113 1712 ft 288 kts 104°
2026-04-25 17:13 29.52247 -94.90035 1947 ft 238 kts 92°
2026-04-25 17:13 29.52256 -94.89430 1952 ft 227 kts 91°
2026-04-25 17:13 29.52393 -94.86905 1725 ft 165 kts 89°
2026-04-25 17:13 29.52523 -94.85643 1610 ft 160 kts 88°
2026-04-25 17:14 29.52665 -94.84379 1501 ft 156 kts 86°
2026-04-25 17:14 29.52826 -94.83168 1421 ft 155 kts 86°
2026-04-25 17:14 29.52927 -94.81921 1334 ft 156 kts 97°
2026-04-25 17:14 29.52871 -94.80684 1335 ft 153 kts 96°
2026-04-25 17:15 29.52848 -94.79464 1308 ft 153 kts 96°
2026-04-25 17:15 29.52824 -94.78246 1386 ft 156 kts 96°
2026-04-25 17:15 29.52897 -94.77008 1673 ft 153 kts 88°
2026-04-25 17:15 29.53034 -94.75777 1792 ft 167 kts 88°
2026-04-25 17:16 29.53143 -94.74432 2080 ft 169 kts 91°
2026-04-25 17:16 29.53227 -94.73051 2201 ft 167 kts 89°
2026-04-25 17:16 29.53325 -94.71840 2108 ft 148 kts 89°
2026-04-25 17:16 29.53419 -94.70668 2046 ft 149 kts 89°
2026-04-25 17:17 29.53525 -94.69523 1903 ft 141 kts 89°
2026-04-25 17:17 29.53641 -94.68431 1766 ft 133 kts 87°
2026-04-25 17:17 29.53770 -94.67415 1528 ft 139 kts 87°
2026-04-25 17:17 29.53922 -94.66021 1505 ft 202 kts 85°
2026-04-25 17:18 29.54119 -94.64377 2539 ft 232 kts 87°
2026-04-25 17:18 29.54292 -94.62309 3268 ft 283 kts 89°
2026-04-25 17:18 29.54462 -94.59883 4117 ft 331 kts 86°
2026-04-25 17:18 29.54696 -94.57123 4946 ft 362 kts 87°
2026-04-25 17:19 29.53473 -94.55444 4951 ft 315 kts 220°
2026-04-25 17:19 29.51791 -94.56667 5613 ft 282 kts 158°
2026-04-25 17:19 29.51574 -94.55311 8009 ft 189 kts 67°
2026-04-25 17:19 29.52295 -94.53790 5993 ft 268 kts 59°
2026-04-25 17:20 29.53354 -94.51777 5409 ft 316 kts 63°
2026-04-25 17:20 29.54424 -94.49488 5804 ft 331 kts 63°
2026-04-25 17:20 29.55325 -94.47525 4881 ft 217 kts 70°
2026-04-25 17:20 29.56339 -94.45160 1895 ft 389 kts 67°
2026-04-25 17:21 29.57306 -94.42541 2858 ft 329 kts 70°
2026-04-25 17:21 29.58135 -94.40172 2726 ft 318 kts 72°
2026-04-25 17:21 29.58936 -94.37733 2836 ft 330 kts 71°
2026-04-25 17:21 29.59715 -94.35294 3492 ft 318 kts 74°
2026-04-25 17:22 29.60373 -94.32916 4076 ft 316 kts 74°
2026-04-25 17:22 29.60588 -94.32125 4068 ft 322 kts 74°
2026-04-25 17:22 29.63203 -94.29671 4020 ft 332 kts 350°
2026-04-25 17:22 29.65427 -94.30490 3754 ft 344 kts 335°
2026-04-25 17:23 29.67518 -94.31534 4439 ft 316 kts 334°
2026-04-25 17:23 29.69518 -94.32586 4342 ft 318 kts 332°
2026-04-25 17:23 29.71544 -94.33734 3517 ft 328 kts 331°
2026-04-25 17:23 29.73390 -94.34865 4134 ft 279 kts 329°
2026-04-25 17:24 29.75101 -94.35969 3560 ft 283 kts 327°
2026-04-25 17:24 29.76286 -94.37605 3081 ft 270 kts 294°
2026-04-25 17:24 29.77103 -94.39512 2732 ft 267 kts 295°
2026-04-25 17:24 29.77941 -94.41377 2519 ft 258 kts 294°
2026-04-25 17:25 29.78978 -94.43068 1980 ft 261 kts 343°
2026-04-25 17:25 29.80833 -94.43083 426 ft 290 kts
2026-04-25 17:25 29.82422 -94.43777 422 ft 225 kts 270°
2026-04-25 17:25 29.81672 -94.44770 734 ft 172 kts 183°
2026-04-25 17:26 29.80567 -94.44487 823 ft 163 kts 137°
2026-04-25 17:26 29.80455 -94.43229 508 ft 182 kts 47°
2026-04-25 17:26 29.81796 -94.42906 815 ft 220 kts
2026-04-25 17:26 29.83430 -94.42879 1525 ft 249 kts
2026-04-25 17:27 29.85408 -94.42847 1669 ft 319 kts
2026-04-25 17:27 29.87764 -94.42819 1760 ft 358 kts
2026-04-25 17:27 29.90319 -94.42264 1715 ft 392 kts
2026-04-25 17:27 29.91229 -94.42068 1766 ft 400 kts 19°
2026-04-25 17:28 29.95079 -94.41838 1751 ft 447 kts 347°
2026-04-25 17:28 29.98210 -94.42558 2058 ft 442 kts 355°
2026-04-25 17:28 30.00922 -94.42769 2214 ft 359 kts 342°
2026-04-25 17:28 30.03269 -94.44788 2329 ft 298 kts 278°
2026-04-25 17:29 30.03283 -94.46308 2437 ft 269 kts 263°
2026-04-25 17:29 30.03150 -94.48360 2365 ft 253 kts 262°
2026-04-25 17:29 30.03023 -94.50330 2253 ft 239 kts 261°
2026-04-25 17:29 30.02952 -94.52157 2436 ft 224 kts 270°
2026-04-25 17:30 30.03634 -94.53932 2598 ft 278 kts 327°
2026-04-25 17:30 30.05468 -94.55105 2949 ft 318 kts 329°
2026-04-25 17:30 30.07602 -94.56491 2502 ft 382 kts 327°
2026-04-25 17:30 30.09836 -94.58377 2092 ft 401 kts 321°
2026-04-25 17:31 30.12001 -94.60312 1822 ft 378 kts 324°
2026-04-25 17:31 30.14134 -94.61786 1851 ft 347 kts 337°
2026-04-25 17:31 30.16251 -94.62883 1860 ft 321 kts 332°
2026-04-25 17:31 30.18186 -94.64053 1762 ft 302 kts 330°
2026-04-25 17:32 30.19962 -94.65034 1753 ft 273 kts 333°
2026-04-25 17:32 30.21403 -94.66290 1729 ft 258 kts 290°
2026-04-25 17:32 30.21171 -94.68261 1705 ft 262 kts 226°
2026-04-25 17:32 30.19512 -94.68951 1710 ft 272 kts 167°
2026-04-25 17:33 30.17789 -94.67980 1725 ft 287 kts 152°
2026-04-25 17:33 30.16137 -94.66864 1719 ft 249 kts 149°
2026-04-25 17:33 30.14743 -94.65845 1693 ft 240 kts 148°
2026-04-25 17:33 30.13310 -94.64767 1675 ft 249 kts 148°
2026-04-25 17:34 30.11979 -94.63448 1639 ft 264 kts 118°
2026-04-25 17:34 30.11993 -94.61390 1600 ft 267 kts 63°
2026-04-25 17:34 30.13434 -94.60397 1569 ft 259 kts 338°
2026-04-25 17:34 30.14720 -94.61802 1563 ft 263 kts 318°
2026-04-25 17:35 30.16276 -94.62965 1572 ft 270 kts 328°
2026-04-25 17:35 30.17919 -94.64064 1612 ft 274 kts 330°
2026-04-25 17:35 30.19550 -94.65202 1605 ft 272 kts 307°
2026-04-25 17:35 30.19921 -94.67189 1573 ft 255 kts 248°
2026-04-25 17:36 30.18700 -94.68431 1576 ft 238 kts 186°
2026-04-25 17:36 30.17173 -94.67927 1584 ft 235 kts 151°
2026-04-25 17:36 30.15764 -94.66968 1642 ft 235 kts 150°
2026-04-25 17:36 30.14362 -94.65965 1632 ft 237 kts 149°
2026-04-25 17:37 30.12966 -94.64939 1619 ft 239 kts 149°
2026-04-25 17:37 30.11556 -94.63886 1605 ft 241 kts 149°
2026-04-25 17:37 30.10737 -94.62297 1557 ft 249 kts 88°
2026-04-25 17:37 30.11682 -94.60747 1529 ft 253 kts 18°
2026-04-25 17:38 30.13325 -94.61110 1434 ft 252 kts 330°
2026-04-25 17:38 30.14407 -94.61770 1499 ft 266 kts 330°
2026-04-25 17:38 30.16681 -94.63219 1473 ft 292 kts 329°
2026-04-25 17:38 30.18486 -94.64244 1436 ft 284 kts 339°
2026-04-25 17:39 30.19994 -94.63117 1337 ft 326 kts 89°
2026-04-25 17:39 30.20077 -94.60197 1671 ft 392 kts 89°
2026-04-25 17:39 30.20189 -94.56982 1994 ft 390 kts 89°
2026-04-25 17:39 30.20333 -94.54033 2052 ft 355 kts 88°
2026-04-25 17:40 30.20503 -94.51286 1969 ft 330 kts 88°
2026-04-25 17:40 30.20687 -94.48732 1763 ft 311 kts 87°
2026-04-25 17:40 30.21404 -94.46492 1661 ft 294 kts 44°
2026-04-25 17:40 30.22992 -94.45044 1013 ft 296 kts 39°
2026-04-25 17:41 30.24622 -94.43649 1084 ft 259 kts 38°
2026-04-25 17:41 30.25987 -94.42523 1466 ft 234 kts 37°
2026-04-25 17:41 30.27357 -94.41423 1608 ft 263 kts 36°
2026-04-25 17:41 30.28954 -94.40358 1673 ft 265 kts 30°
2026-04-25 17:42 30.30691 -94.39752 1418 ft 268 kts
2026-04-25 17:42 30.32226 -94.40727 1362 ft 261 kts 293°
2026-04-25 17:42 30.32309 -94.42693 1644 ft 245 kts 246°
2026-04-25 17:42 30.31201 -94.44104 1789 ft 245 kts 204°
2026-04-25 17:43 30.29604 -94.44725 2083 ft 246 kts 188°
2026-04-25 17:43 30.27970 -94.44056 2763 ft 280 kts 127°
2026-04-25 17:43 30.27107 -94.42087 3028 ft 278 kts 117°
2026-04-25 17:43 30.26314 -94.40001 3026 ft 290 kts 115°
2026-04-25 17:44 30.25537 -94.37822 3021 ft 294 kts 115°
2026-04-25 17:44 30.24314 -94.36097 3002 ft 279 kts 172°
2026-04-25 17:44 30.22643 -94.36966 3020 ft 275 kts 214°
2026-04-25 17:44 30.21459 -94.38579 2718 ft 285 kts 254°
2026-04-25 17:45 30.20993 -94.40836 2663 ft 292 kts 254°
2026-04-25 17:45 30.20686 -94.42400 2612 ft 296 kts 255°
2026-04-25 17:45 30.20105 -94.45460 2845 ft 292 kts 254°
2026-04-25 17:45 30.19617 -94.47729 3017 ft 287 kts 250°
2026-04-25 17:46 30.18993 -94.49906 3008 ft 288 kts 249°
2026-04-25 17:46 30.18322 -94.52086 3009 ft 291 kts 247°
2026-04-25 17:46 30.17578 -94.54285 2977 ft 295 kts 245°
2026-04-25 17:46 30.17002 -94.56574 3062 ft 298 kts 253°
2026-04-25 17:47 30.16357 -94.58860 3069 ft 300 kts 251°
2026-04-25 17:47 30.15750 -94.61173 3065 ft 301 kts 249°
2026-04-25 17:47 30.15120 -94.63460 3077 ft 303 kts 255°
2026-04-25 17:47 30.14629 -94.65842 3090 ft 304 kts 253°
2026-04-25 17:48 30.13534 -94.70530 2996 ft 298 kts 250°
2026-04-25 17:48 30.12882 -94.72790 2911 ft 295 kts 245°
2026-04-25 17:48 30.12102 -94.74978 2797 ft 294 kts 247°
2026-04-25 17:49 30.11508 -94.77231 2816 ft 290 kts 252°
2026-04-25 17:49 30.11022 -94.79458 2786 ft 287 kts 253°
2026-04-25 17:49 30.10494 -94.81663 2786 ft 282 kts 251°
2026-04-25 17:49 30.09876 -94.83804 2782 ft 279 kts 248°
2026-04-25 17:50 30.09198 -94.85891 2698 ft 279 kts 246°
2026-04-25 17:50 30.08517 -94.88008 2515 ft 283 kts 248°
2026-04-25 17:50 30.07924 -94.90169 2450 ft 283 kts 252°
2026-04-25 17:50 30.07307 -94.92331 2502 ft 282 kts 249°
2026-04-25 17:51 30.06700 -94.94467 2894 ft 279 kts 250°
2026-04-25 17:51 30.06096 -94.96636 3018 ft 289 kts 249°
2026-04-25 17:51 30.05453 -94.98863 3027 ft 299 kts 249°
2026-04-25 17:51 30.04766 -95.01164 3018 ft 307 kts 249°
2026-04-25 17:52 30.04032 -95.03512 3037 ft 312 kts 247°
2026-04-25 17:52 30.03774 -95.04302 3045 ft 314 kts 247°
2026-04-25 17:52 30.02626 -95.08317 3065 ft 319 kts 241°
2026-04-25 17:52 30.00980 -95.09887 3049 ft 315 kts 194°
2026-04-25 17:53 29.98784 -95.10113 3030 ft 319 kts 183°
2026-04-25 17:53 29.96565 -95.10222 3216 ft 316 kts 182°
2026-04-25 17:53 29.94411 -95.10284 3459 ft 312 kts 181°
2026-04-25 17:53 29.92225 -95.10403 3472 ft 317 kts 189°
2026-04-25 17:54 29.90039 -95.10946 3266 ft 324 kts 192°
2026-04-25 17:54 29.87832 -95.11675 2793 ft 335 kts 203°
2026-04-25 17:54 29.85722 -95.12822 2641 ft 334 kts 205°
2026-04-25 17:54 29.83614 -95.13950 2498 ft 333 kts 206°
2026-04-25 17:55 29.81605 -95.15158 2920 ft 319 kts 207°
2026-04-25 17:55 29.79669 -95.16358 2959 ft 306 kts 205°
2026-04-25 17:55 29.77689 -95.16725 2965 ft 276 kts 183°
2026-04-25 17:55 29.75837 -95.16769 2785 ft 265 kts 184°
2026-04-25 17:56 29.73996 -95.16766 2386 ft 263 kts 176°
2026-04-25 17:56 29.72184 -95.16621 2070 ft 258 kts 178°
2026-04-25 17:56 29.70418 -95.16590 1780 ft 250 kts 181°
2026-04-25 17:56 29.69904 -95.16606 1715 ft 248 kts 181°
2026-04-25 17:57 29.69818 -95.16608 1698 ft 248 kts 181°
2026-04-25 17:57 29.69227 -95.16627 1581 ft 248 kts 181°
2026-04-25 17:58 29.66358 -95.16532 979 ft 245 kts 179°
2026-04-25 17:58 29.64414 -95.16511 557 ft 329 kts 178°
2026-04-25 17:58 29.62006 -95.16456 472 ft 356 kts 179°
2026-04-25 17:58 29.59806 -95.17041 596 ft 322 kts 257°
2026-04-25 17:59 29.61144 -95.18366 704 ft 273 kts 355°
2026-04-25 17:59 29.62725 -95.18479 766 ft 193 kts 359°
2026-04-25 17:59 29.63760 -95.17895 623 ft 167 kts 75°
2026-04-25 17:59 29.63496 -95.16751 415 ft 157 kts 145°
2026-04-25 18:00 29.62482 -95.16470 163 ft 143 kts 177°
2026-04-25 18:00 29.61555 -95.16443 36 ft 116 kts 179°
2026-04-25 18:00 29.60864 -95.16424 39 ft 86 kts 178°
2026-04-25 18:00 29.60308 -95.16407 36 ft 79 kts 178°
2026-04-25 18:01 29.59843 -95.16406 38 ft 46 kts 180°
2026-04-25 18:01 29.59686 -95.16448 38 ft 16 kts 226°
2026-04-25 18:01 29.59624 -95.16518 38 ft 14 kts 228°
2026-04-25 18:01 29.59637 -95.16616 38 ft 13 kts 322°
2026-04-25 18:02 29.59661 -95.16697 38 ft 4 kts 293°
2026-04-25 18:02 29.59684 -95.16703 38 ft 0 kts 358°